Time;durP1;ratioP1;P1;durP2;ratioP2;P2;SDS_P1;SDS_P2;PMS_P1;PMS_P2;Temp;Humidity;BMP_temperature;BMP_pressure;BME280_temperature;BME280_humidity;BME280_pressure;Samples;Min_cycle;Max_cycle;Signal;HPM_P1;HPM_P2
2022/07/06 00:00:57;;;;;;;5.27;3.90;;;;;;;16.86;100.00;96846.84;5034213;28;20233;-81
2022/07/06 00:03:24;;;;;;;4.60;4.13;;;;;;;16.92;100.00;96857.56;5035959;28;20230;-82
2022/07/06 00:05:51;;;;;;;6.83;3.87;;;;;;;16.89;100.00;96851.78;5037748;28;20225;-82
2022/07/06 00:08:18;;;;;;;5.30;3.10;;;;;;;16.98;100.00;96855.69;5037911;28;20253;-80
2022/07/06 00:10:45;;;;;;;4.77;3.90;;;;;;;16.98;100.00;96847.50;5036875;28;20203;-80
2022/07/06 00:13:14;;;;;;;3.73;3.37;;;;;;;16.90;100.00;96853.44;5029870;28;20257;-81
2022/07/06 00:15:41;;;;;;;3.57;3.27;;;;;;;16.80;100.00;96847.88;5048581;28;20298;-81
2022/07/06 00:18:08;;;;;;;3.60;3.30;;;;;;;16.76;100.00;96844.81;5039681;28;20230;-81
2022/07/06 00:20:36;;;;;;;4.63;3.33;;;;;;;16.72;100.00;96831.97;5027246;28;20215;-80
2022/07/06 00:23:03;;;;;;;3.20;3.00;;;;;;;16.75;100.00;96839.66;5039227;28;20207;-80
2022/07/06 00:25:30;;;;;;;3.57;3.23;;;;;;;16.81;100.00;96839.44;5036413;28;20241;-81
2022/07/06 00:27:58;;;;;;;6.30;3.03;;;;;;;16.79;100.00;96829.88;5036304;28;20260;-80
2022/07/06 00:30:26;;;;;;;4.13;3.10;;;;;;;16.82;100.00;96827.47;5038382;28;20215;-81
2022/07/06 00:32:53;;;;;;;3.53;3.23;;;;;;;16.80;100.00;96823.34;5036812;28;20301;-80
2022/07/06 00:35:21;;;;;;;4.13;3.30;;;;;;;16.67;100.00;96830.03;5036139;28;20269;-81
2022/07/06 00:37:48;;;;;;;7.17;3.33;;;;;;;16.63;100.00;96835.16;5038451;28;20277;-81
2022/07/06 00:40:15;;;;;;;4.10;3.70;;;;;;;16.57;100.00;96828.00;5032822;28;20215;-80
2022/07/06 00:42:43;;;;;;;4.10;3.60;;;;;;;16.58;100.00;96840.53;5044719;28;20339;-80
2022/07/06 00:45:11;;;;;;;4.77;4.00;;;;;;;16.55;100.00;96829.31;5035477;28;20211;-81
2022/07/06 00:47:41;;;;;;;6.47;3.90;;;;;;;16.53;100.00;96837.75;5048792;28;20232;-79
2022/07/06 00:50:18;;;;;;;5.90;3.90;;;;;;;16.45;100.00;96829.19;5038937;28;20207;-81
2022/07/06 00:52:47;;;;;;;4.03;3.73;;;;;;;16.45;100.00;96823.75;5029773;28;20213;-80
2022/07/06 00:55:15;;;;;;;5.97;3.70;;;;;;;16.45;100.00;96829.19;5037344;28;20202;-81
2022/07/06 00:57:43;;;;;;;4.63;3.20;;;;;;;16.49;100.00;96827.63;5042957;28;20194;-81
2022/07/06 01:00:13;;;;;;;3.43;3.13;;;;;;;16.49;100.00;96824.91;5033746;28;20202;-81
2022/07/06 01:02:42;;;;;;;4.40;3.00;;;;;;;16.50;100.00;96821.91;5035460;28;20270;-81
2022/07/06 01:05:11;;;;;;;4.20;3.00;;;;;;;16.53;100.00;96821.38;5043600;28;20202;-81
2022/07/06 01:07:40;;;;;;;5.30;3.27;;;;;;;16.48;100.00;96807.72;5035556;28;20246;-81
2022/07/06 01:10:10;;;;;;;4.93;3.20;;;;;;;16.44;100.00;96806.56;5030198;28;20238;-80
2022/07/06 01:12:40;;;;;;;4.20;3.40;;;;;;;16.37;100.00;96814.13;5040861;28;20288;-80
2022/07/06 01:15:09;;;;;;;3.77;3.30;;;;;;;16.28;100.00;96797.41;5028848;28;20709;-80
2022/07/06 01:17:39;;;;;;;4.83;3.30;;;;;;;16.25;100.00;96797.09;5038153;28;20226;-81
2022/07/06 01:20:11;;;;;;;5.07;3.80;;;;;;;16.24;100.00;96796.28;5032093;28;20214;-80
2022/07/06 01:22:38;;;;;;;4.03;3.63;;;;;;;16.18;100.00;96804.63;5038037;28;20215;-81
2022/07/06 01:25:07;;;;;;;8.03;4.20;;;;;;;15.93;100.00;96788.81;5044555;28;20202;-80
2022/07/06 01:27:38;;;;;;;7.07;3.90;;;;;;;15.99;100.00;96792.44;5040550;28;20264;-81
2022/07/06 01:30:07;;;;;;;5.73;3.83;;;;;;;16.07;100.00;96798.25;5031991;28;20199;-81
2022/07/06 01:32:35;;;;;;;4.40;4.00;;;;;;;16.13;100.00;96796.41;5042492;28;20211;-80
2022/07/06 01:35:03;;;;;;;5.97;3.90;;;;;;;16.23;100.00;96810.16;5031694;28;20256;-81
2022/07/06 01:37:32;;;;;;;4.00;3.50;;;;;;;16.22;100.00;96805.78;5030825;28;20222;-81
2022/07/06 01:40:00;;;;;;;4.07;3.70;;;;;;;16.23;100.00;96815.63;5029586;28;20230;-81
2022/07/06 01:42:28;;;;;;;5.43;3.30;;;;;;;16.26;100.00;96809.63;5031115;28;20214;-80
2022/07/06 01:44:56;;;;;;;3.70;3.40;;;;;;;16.23;100.00;96805.53;5036487;28;20205;-80
2022/07/06 01:47:23;;;;;;;3.93;3.50;;;;;;;16.16;100.00;96810.34;5036176;28;20234;-81
2022/07/06 01:49:52;;;;;;;5.40;3.70;;;;;;;16.19;100.00;96809.00;5039285;28;20198;-81
2022/07/06 01:52:21;;;;;;;4.83;3.50;;;;;;;16.26;100.00;96815.06;5031305;28;20211;-80
2022/07/06 01:54:50;;;;;;;3.97;3.60;;;;;;;16.21;100.00;96795.97;5035627;28;20225;-78
2022/07/06 01:57:17;;;;;;;4.20;3.60;;;;;;;16.25;100.00;96810.72;5029403;28;20254;-80
2022/07/06 01:59:44;;;;;;;4.20;3.53;;;;;;;16.20;100.00;96806.03;5029471;28;20211;-81
2022/07/06 02:02:11;;;;;;;4.00;3.60;;;;;;;16.19;100.00;96809.84;5034441;28;20202;-80
2022/07/06 02:04:38;;;;;;;4.90;3.63;;;;;;;16.12;100.00;96809.22;5038113;28;20214;-80
2022/07/06 02:07:05;;;;;;;5.13;3.80;;;;;;;16.07;100.00;96802.88;5030646;28;20222;-81
2022/07/06 02:09:32;;;;;;;8.30;3.97;;;;;;;16.08;100.00;96802.59;5039419;28;20198;-81
2022/07/06 02:12:00;;;;;;;5.73;3.90;;;;;;;16.12;100.00;96808.38;5038939;28;20288;-79
2022/07/06 02:14:27;;;;;;;4.83;3.90;;;;;;;16.11;100.00;96809.47;5040550;28;20300;-80
2022/07/06 02:16:54;;;;;;;4.20;3.80;;;;;;;16.15;100.00;96808.72;5039421;28;20198;-79
2022/07/06 02:19:22;;;;;;;4.47;3.83;;;;;;;16.22;100.00;96809.34;5035693;28;20210;-81
2022/07/06 02:21:49;;;;;;;3.80;3.33;;;;;;;16.25;100.00;96806.09;5032747;28;20289;-81
2022/07/06 02:24:16;;;;;;;5.93;3.77;;;;;;;16.30;100.00;96799.88;5027150;28;20296;-81
2022/07/06 02:26:43;;;;;;;3.93;3.57;;;;;;;16.39;100.00;96792.91;5031730;28;20230;-81
2022/07/06 02:29:12;;;;;;;6.87;3.43;;;;;;;16.43;100.00;96807.66;5042384;28;20264;-81
2022/07/06 02:31:39;;;;;;;6.87;3.90;;;;;;;16.37;100.00;96799.69;5037966;28;20215;-81
2022/07/06 02:34:06;;;;;;;5.20;3.73;;;;;;;16.32;100.00;96792.28;5034484;28;20210;-81
2022/07/06 02:36:34;;;;;;;5.97;3.90;;;;;;;16.24;100.00;96800.91;5029917;28;20347;-81
2022/07/06 02:39:01;;;;;;;4.03;3.63;;;;;;;16.21;100.00;96801.41;5035985;28;20809;-81
2022/07/06 02:41:30;;;;;;;4.27;3.70;;;;;;;16.25;100.00;96799.81;5043457;28;20206;-80
2022/07/06 02:43:57;;;;;;;4.43;3.90;;;;;;;16.27;100.00;96801.22;5032685;28;20257;-81
2022/07/06 02:46:25;;;;;;;7.47;3.60;;;;;;;16.16;100.00;96798.63;5038699;28;20222;-80
2022/07/06 02:48:52;;;;;;;4.37;3.57;;;;;;;16.13;100.00;96796.41;5041340;28;20203;-80
2022/07/06 02:51:20;;;;;;;5.13;4.20;;;;;;;16.16;100.00;96801.38;5035752;28;20347;-79
2022/07/06 02:53:47;;;;;;;4.30;3.90;;;;;;;16.15;100.00;96795.09;5044113;28;20233;-80
2022/07/06 02:56:14;;;;;;;3.90;3.60;;;;;;;16.10;100.00;96800.47;5039140;28;20236;-81
2022/07/06 02:58:42;;;;;;;7.03;3.83;;;;;;;16.05;100.00;96799.59;5035733;28;20206;-80
2022/07/06 03:01:09;;;;;;;5.03;3.83;;;;;;;16.04;100.00;96797.94;5032725;28;20232;-80
2022/07/06 03:03:38;;;;;;;4.03;3.63;;;;;;;16.08;100.00;96812.69;5045061;28;20205;-81
2022/07/06 03:06:07;;;;;;;5.47;4.00;;;;;;;16.14;100.00;96801.63;5043236;28;20211;-80
2022/07/06 03:08:34;;;;;;;3.63;3.33;;;;;;;16.17;100.00;96806.53;5043484;28;20190;-80
2022/07/06 03:11:02;;;;;;;6.70;3.30;;;;;;;16.24;100.00;96814.53;5038173;28;20198;-80
2022/07/06 03:13:30;;;;;;;5.03;3.47;;;;;;;16.22;100.00;96808.50;5044339;28;20217;-81
2022/07/06 03:15:57;;;;;;;5.83;3.30;;;;;;;16.14;100.00;96806.22;5040315;28;20217;-80
2022/07/06 03:18:24;;;;;;;8.43;4.60;;;;;;;16.13;100.00;96810.03;5030342;28;20290;-81
2022/07/06 03:20:53;;;;;;;4.07;3.50;;;;;;;16.17;100.00;96816.59;5044829;28;20217;-80
2022/07/06 03:23:21;;;;;;;4.13;3.57;;;;;;;16.16;100.00;96815.78;5030408;28;20270;-80
2022/07/06 03:25:49;;;;;;;4.77;4.10;;;;;;;16.16;100.00;96820.44;5029758;28;20227;-81
2022/07/06 03:28:16;;;;;;;3.63;3.33;;;;;;;16.13;100.00;96815.47;5033076;28;20227;-81
2022/07/06 03:30:43;;;;;;;7.17;3.73;;;;;;;16.10;100.00;96821.44;5028151;28;20215;-80
2022/07/06 03:33:11;;;;;;;4.53;3.70;;;;;;;16.12;100.00;96820.09;5036520;28;20194;-82
2022/07/06 03:35:38;;;;;;;8.00;3.50;;;;;;;16.21;100.00;96825.94;5038219;28;20211;-80
2022/07/06 03:38:08;;;;;;;5.83;3.37;;;;;;;16.25;100.00;96819.69;5037476;28;20210;-81
2022/07/06 03:40:36;;;;;;;4.43;4.03;;;;;;;16.25;100.00;96825.16;5041622;28;20208;-81
2022/07/06 03:43:03;;;;;;;4.70;3.47;;;;;;;16.25;100.00;96813.44;5027966;28;20296;-80
2022/07/06 03:45:34;;;;;;;5.73;3.93;;;;;;;16.16;100.00;96821.22;5037064;28;20198;-81
2022/07/06 03:48:02;;;;;;;4.77;3.40;;;;;;;16.17;100.00;96816.59;5037376;28;20221;-81
2022/07/06 03:50:32;;;;;;;4.83;3.47;;;;;;;16.24;100.00;96825.44;5029891;28;20215;-81
2022/07/06 03:52:59;;;;;;;4.73;3.07;;;;;;;16.15;100.00;96824.22;5037146;28;20202;-80
2022/07/06 03:55:29;;;;;;;4.37;3.13;;;;;;;16.17;100.00;96832.94;5035512;28;20199;-80
2022/07/06 03:58:01;;;;;;;4.03;3.37;;;;;;;16.13;100.00;96818.22;5039120;28;20241;-80
2022/07/06 04:00:29;;;;;;;4.00;3.07;;;;;;;16.22;100.00;96835.75;5030453;28;20257;-81
2022/07/06 04:03:03;;;;;;;4.90;3.07;;;;;;;16.22;100.00;96839.31;5030565;28;20197;-80
2022/07/06 04:05:35;;;;;;;9.53;3.47;;;;;;;16.28;100.00;96848.34;5041557;28;20217;-80
2022/07/06 04:08:02;;;;;;;5.63;2.87;;;;;;;16.28;100.00;96837.47;5039932;28;20230;-80
2022/07/06 04:10:38;;;;;;;3.90;3.20;;;;;;;16.27;100.00;96839.34;5038734;28;20202;-80
2022/07/06 04:13:06;;;;;;;4.60;3.07;;;;;;;16.32;100.00;96844.06;5037503;28;20218;-81
2022/07/06 04:15:33;;;;;;;3.93;3.30;;;;;;;16.27;100.00;96847.53;5042760;28;20292;-80
2022/07/06 04:18:01;;;;;;;7.50;3.50;;;;;;;16.29;100.00;96847.28;5036301;28;20211;-81
2022/07/06 04:20:32;;;;;;;4.37;3.60;;;;;;;16.28;100.00;96846.47;5042947;28;20210;-80
2022/07/06 04:22:59;;;;;;;4.17;3.67;;;;;;;16.19;100.00;96847.97;5053327;28;20206;-80
2022/07/06 04:25:27;;;;;;;4.37;3.33;;;;;;;16.18;100.00;96840.06;5035192;28;20294;-79
2022/07/06 04:28:00;;;;;;;3.50;3.20;;;;;;;16.22;100.00;96857.56;5041577;28;20218;-77
2022/07/06 04:30:29;;;;;;;3.70;3.33;;;;;;;16.19;100.00;96847.16;5032284;28;20214;-80
2022/07/06 04:32:56;;;;;;;5.03;3.63;;;;;;;16.14;100.00;96845.19;5038486;28;20288;-80
2022/07/06 04:35:25;;;;;;;6.90;3.60;;;;;;;16.10;100.00;96838.59;5038798;28;20220;-79
2022/07/06 04:37:53;;;;;;;5.67;3.10;;;;;;;16.02;100.00;96841.75;5031062;28;20302;-79
2022/07/06 04:40:22;;;;;;;9.30;3.53;;;;;;;15.96;100.00;96836.50;5028627;28;20213;-78
2022/07/06 04:42:52;;;;;;;4.50;4.10;;;;;;;15.99;100.00;96838.75;5037408;28;20271;-79
2022/07/06 04:45:21;;;;;;;8.37;4.33;;;;;;;15.94;100.00;96839.47;5041400;28;20205;-80
2022/07/06 04:47:49;;;;;;;3.70;3.40;;;;;;;15.96;100.00;96831.06;5030302;28;20222;-80
2022/07/06 04:50:17;;;;;;;4.67;3.60;;;;;;;16.05;100.00;96840.44;5043957;28;20206;-79
2022/07/06 04:52:44;;;;;;;3.90;3.60;;;;;;;16.05;100.00;96844.00;5037129;28;20277;-80
2022/07/06 04:55:14;;;;;;;3.83;3.40;;;;;;;16.11;100.00;96845.69;5029995;28;20207;-79
2022/07/06 04:57:41;;;;;;;5.17;3.70;;;;;;;16.13;100.00;96848.19;5035945;28;20221;-77
2022/07/06 05:00:10;;;;;;;3.43;3.13;;;;;;;16.10;100.00;96854.13;5037146;28;20301;-79
2022/07/06 05:02:39;;;;;;;5.40;3.40;;;;;;;16.05;100.00;96854.06;5040072;28;20254;-79
2022/07/06 05:05:06;;;;;;;3.53;3.23;;;;;;;15.97;100.00;96849.88;5034576;28;20199;-76
2022/07/06 05:07:39;;;;;;;3.83;3.37;;;;;;;15.93;100.00;96847.91;5039278;28;20223;-77
2022/07/06 05:10:08;;;;;;;5.13;4.07;;;;;;;15.88;100.00;96846.75;5046042;28;20202;-78
2022/07/06 05:12:35;;;;;;;4.00;3.70;;;;;;;15.83;100.00;96852.13;5047474;28;20216;-77
2022/07/06 05:15:04;;;;;;;6.10;3.47;;;;;;;15.86;100.00;96848.91;5041934;28;20206;-77
2022/07/06 05:17:31;;;;;;;3.90;3.60;;;;;;;15.88;100.00;96852.22;5038647;28;20283;-78
2022/07/06 05:20:02;;;;;;;8.30;3.90;;;;;;;15.85;100.00;96851.88;5037092;28;20222;-77
2022/07/06 05:22:33;;;;;;;5.53;3.93;;;;;;;15.78;100.00;96846.63;5038534;28;20202;-78
2022/07/06 05:25:00;;;;;;;4.17;3.77;;;;;;;15.78;100.00;96845.78;5029867;28;20203;-77
2022/07/06 05:27:27;;;;;;;6.43;4.07;;;;;;;15.70;100.00;96836.16;5031945;28;20226;-77
2022/07/06 05:29:54;;;;;;;6.60;3.77;;;;;;;15.67;100.00;96833.09;5039479;28;20288;-77
2022/07/06 05:32:22;;;;;;;4.33;3.30;;;;;;;15.68;100.00;96834.75;5034239;28;20330;-77
2022/07/06 05:34:51;;;;;;;3.80;3.50;;;;;;;15.67;100.00;96836.66;5044026;28;20216;-77
2022/07/06 05:37:21;;;;;;;6.87;4.00;;;;;;;15.71;100.00;96835.09;5035038;28;20206;-76
2022/07/06 05:39:50;;;;;;;3.43;3.00;;;;;;;15.78;100.00;96834.91;5036209;28;20219;-76
2022/07/06 05:42:17;;;;;;;6.70;3.43;;;;;;;15.91;100.00;96834.53;5039059;28;20210;-77
2022/07/06 05:44:46;;;;;;;3.70;3.40;;;;;;;15.95;100.00;96841.13;5034754;28;20206;-77
2022/07/06 05:50:14;;;;;;;6.70;3.40;;;;;;;15.91;100.00;96839.19;5037270;28;20206;-76
2022/07/06 05:52:58;;;;;;;3.40;2.87;;;;;;;15.91;100.00;96837.25;5037753;28;20213;-78
2022/07/06 05:55:27;;;;;;;3.60;2.97;;;;;;;15.89;100.00;96840.25;5041240;28;20213;-77
2022/07/06 05:57:55;;;;;;;5.80;3.13;;;;;;;15.94;100.00;96846.81;5028148;28;20191;-77
2022/07/06 06:00:25;;;;;;;4.50;3.20;;;;;;;16.00;100.00;96845.81;5037747;28;20218;-78
2022/07/06 06:02:55;;;;;;;4.13;3.70;;;;;;;16.01;100.00;96844.72;5043173;28;20238;-77
2022/07/06 06:05:23;;;;;;;4.00;3.20;;;;;;;16.06;100.00;96853.00;5038919;28;20272;-77
2022/07/06 06:07:53;;;;;;;3.80;3.43;;;;;;;16.00;100.00;96859.44;5028125;28;20214;-77
2022/07/06 06:10:25;;;;;;;3.73;3.30;;;;;;;16.00;100.00;96851.25;5042698;28;20213;-79
2022/07/06 06:12:56;;;;;;;6.17;3.73;;;;;;;15.96;100.00;96853.69;5038423;28;20206;-79
2022/07/06 06:15:24;;;;;;;4.97;3.20;;;;;;;15.96;100.00;96852.84;5036096;28;20210;-79
2022/07/06 06:17:51;;;;;;;4.30;3.90;;;;;;;16.07;100.00;96854.66;5033004;28;20257;-79
2022/07/06 06:20:18;;;;;;;5.07;3.67;;;;;;;16.07;100.00;96854.66;5029165;28;20206;-79
2022/07/06 06:22:46;;;;;;;6.20;4.00;;;;;;;16.04;100.00;96855.97;5035590;28;20214;-79
2022/07/06 06:25:14;;;;;;;8.03;4.50;;;;;;;16.01;100.00;96855.63;5042324;28;20211;-79
2022/07/06 06:27:42;;;;;;;7.50;3.93;;;;;;;15.97;100.00;96855.34;5040714;28;20222;-79
2022/07/06 06:30:10;;;;;;;6.07;3.90;;;;;;;16.02;100.00;96860.00;5043727;28;20209;-79
2022/07/06 06:32:37;;;;;;;4.40;3.80;;;;;;;16.07;100.00;96854.66;5046009;28;20199;-79
2022/07/06 06:35:05;;;;;;;5.37;4.23;;;;;;;16.08;100.00;96851.63;5040433;28;20213;-78
2022/07/06 06:37:32;;;;;;;4.63;3.70;;;;;;;16.10;100.00;96852.22;5043005;28;20256;-78
2022/07/06 06:39:59;;;;;;;4.20;3.43;;;;;;;16.17;100.00;96857.47;5033979;28;20206;-79
2022/07/06 06:42:26;;;;;;;6.73;3.60;;;;;;;16.18;100.00;96862.69;5032787;28;20210;-79
2022/07/06 06:44:54;;;;;;;4.60;3.50;;;;;;;16.19;100.00;96860.78;5031937;28;20213;-79
2022/07/06 06:47:22;;;;;;;5.10;3.90;;;;;;;16.23;100.00;96853.75;5032158;28;20222;-79
2022/07/06 06:49:49;;;;;;;4.97;3.90;;;;;;;16.21;100.00;96855.91;5029012;28;20219;-79
2022/07/06 06:52:16;;;;;;;4.20;3.57;;;;;;;16.12;100.00;96846.53;5035151;28;20207;-79
2022/07/06 06:54:43;;;;;;;6.13;3.40;;;;;;;16.13;100.00;96842.72;5042051;28;20210;-79
2022/07/06 06:57:10;;;;;;;5.93;3.63;;;;;;;16.18;100.00;96845.50;5044950;28;20268;-79
2022/07/06 06:59:37;;;;;;;4.10;3.70;;;;;;;16.28;100.00;96848.34;5037079;28;20221;-78
2022/07/06 07:02:06;;;;;;;6.07;3.70;;;;;;;16.33;100.00;96840.25;5038819;28;20218;-78
2022/07/06 07:04:33;;;;;;;6.13;3.60;;;;;;;16.34;100.00;96841.06;5047812;28;20209;-79
2022/07/06 07:07:00;;;;;;;6.80;4.03;;;;;;;16.38;100.00;96831.31;5042217;28;20294;-79
2022/07/06 07:09:27;;;;;;;6.10;3.73;;;;;;;16.47;100.00;96835.22;5040495;28;20228;-79
2022/07/06 07:11:54;;;;;;;3.87;3.10;;;;;;;16.53;100.00;96831.47;5037728;28;20261;-79
2022/07/06 07:14:21;;;;;;;3.60;3.30;;;;;;;16.57;100.00;96824.44;5033837;28;20215;-78
2022/07/06 07:16:49;;;;;;;3.10;2.80;;;;;;;16.59;100.00;96831.25;5040403;28;20198;-78
2022/07/06 07:19:17;;;;;;;4.17;2.80;;;;;;;16.70;100.00;96829.50;5039931;28;20213;-79
2022/07/06 07:21:44;;;;;;;3.60;3.07;;;;;;;17.16;100.00;96814.38;5034332;28;20249;-79
2022/07/06 07:24:11;;;;;;;4.43;2.90;;;;;;;17.67;100.00;96823.81;5041477;28;20198;-79
2022/07/06 07:26:38;;;;;;;3.37;2.53;;;;;;;17.95;100.00;96827.25;5040082;28;20231;-79
2022/07/06 07:29:06;;;;;;;4.20;2.70;;;;;;;18.22;100.00;96818.88;5032603;28;20249;-80
2022/07/06 07:31:33;;;;;;;3.63;2.33;;;;;;;18.52;100.00;96832.66;5041938;28;20210;-79
2022/07/06 07:34:00;;;;;;;2.43;2.23;;;;;;;18.76;100.00;96822.91;5037243;28;20324;-80
2022/07/06 07:36:28;;;;;;;2.90;2.60;;;;;;;19.20;100.00;96817.75;5046212;28;20237;-78
2022/07/06 07:38:55;;;;;;;2.88;2.30;;;;;;;19.59;100.00;96818.03;5036232;28;20197;-79
2022/07/06 07:41:22;;;;;;;3.65;2.50;;;;;;;19.96;100.00;96811.38;5039531;28;20190;-79
2022/07/06 07:43:50;;;;;;;2.38;2.22;;;;;;;20.49;100.00;96817.25;5037458;28;20210;-79
2022/07/06 07:46:17;;;;;;;3.67;2.20;;;;;;;20.67;100.00;96802.88;5033836;28;20284;-80
2022/07/06 07:48:44;;;;;;;3.75;2.30;;;;;;;20.88;100.00;96809.88;5032964;28;20230;-79
2022/07/06 07:51:12;;;;;;;4.32;2.40;;;;;;;21.18;100.00;96803.34;5044948;28;20210;-80
2022/07/06 07:53:40;;;;;;;2.97;2.15;;;;;;;21.34;100.00;96801.34;5037605;28;20198;-79
2022/07/06 07:56:07;;;;;;;2.45;2.25;;;;;;;21.33;100.00;96795.03;5034868;28;20300;-79
2022/07/06 07:58:34;;;;;;;4.38;2.47;;;;;;;21.50;100.00;96803.66;5036482;28;20214;-80
2022/07/06 08:01:01;;;;;;;5.75;2.78;;;;;;;21.76;100.00;96798.72;5033668;28;20203;-80
2022/07/06 08:03:29;;;;;;;4.03;3.33;;;;;;;22.03;97.25;96802.88;5043165;28;20210;-80
2022/07/06 08:05:56;;;;;;;4.15;2.85;;;;;;;22.35;93.65;96799.47;5035002;28;20206;-80
2022/07/06 08:08:23;;;;;;;3.25;2.90;;;;;;;22.59;92.49;96801.06;5036043;28;20311;-79
2022/07/06 08:10:51;;;;;;;5.70;3.20;;;;;;;22.81;89.20;96802.44;5040027;28;20206;-80
2022/07/06 08:13:18;;;;;;;3.80;3.15;;;;;;;22.89;89.02;96807.28;5031339;28;20250;-80
2022/07/06 08:15:45;;;;;;;4.57;3.03;;;;;;;22.96;88.50;96799.47;5040654;28;20206;-79
2022/07/06 08:18:12;;;;;;;4.82;3.10;;;;;;;22.93;89.79;96797.31;5031865;28;20211;-79
2022/07/06 08:20:39;;;;;;;4.13;2.78;;;;;;;22.82;89.63;96798.56;5041883;28;20209;-79
2022/07/06 08:23:07;;;;;;;5.13;2.80;;;;;;;22.61;88.57;96792.50;5034676;28;20207;-79
2022/07/06 08:25:34;;;;;;;3.80;2.72;;;;;;;22.57;90.08;96796.97;5027438;28;20226;-79
2022/07/06 08:28:02;;;;;;;2.95;2.53;;;;;;;22.62;90.19;96794.16;5041612;28;20237;-79
2022/07/06 08:30:31;;;;;;;5.80;2.38;;;;;;;22.76;90.53;96794.25;5036446;28;20214;-79
2022/07/06 08:32:58;;;;;;;2.67;2.30;;;;;;;22.89;88.67;96796.25;5026001;28;20210;-79
2022/07/06 08:35:25;;;;;;;2.70;2.50;;;;;;;23.08;88.85;96799.81;5030952;28;20218;-79
2022/07/06 08:37:52;;;;;;;2.63;2.42;;;;;;;23.26;86.05;96793.47;5043340;28;20199;-80
2022/07/06 08:40:19;;;;;;;7.18;2.60;;;;;;;23.30;81.46;96794.53;5039259;28;20205;-80
2022/07/06 08:42:49;;;;;;;4.90;2.60;;;;;;;23.36;84.21;96787.81;5036171;28;20207;-79
2022/07/06 08:45:18;;;;;;;3.08;2.10;;;;;;;23.33;78.63;96791.16;5037247;28;20207;-80
2022/07/06 08:47:46;;;;;;;4.03;2.50;;;;;;;23.33;76.41;96787.56;5034170;28;20211;-80
2022/07/06 08:50:14;;;;;;;2.40;2.20;;;;;;;23.39;75.46;96800.19;5028403;28;20218;-80
2022/07/06 08:52:41;;;;;;;4.22;3.38;;;;;;;23.37;77.63;96797.72;5042795;28;20248;-79
2022/07/06 08:55:10;;;;;;;4.43;2.63;;;;;;;23.50;78.44;96795.31;5029931;28;20495;-80
2022/07/06 08:57:39;;;;;;;3.85;2.60;;;;;;;23.50;76.37;96792.56;5030039;28;20218;-80
2022/07/06 09:00:08;;;;;;;3.30;3.00;;;;;;;23.48;75.73;96792.03;5035841;28;20264;-80
2022/07/06 09:02:37;;;;;;;4.65;2.35;;;;;;;23.61;76.50;96802.28;5032959;28;20234;-80
2022/07/06 09:05:05;;;;;;;2.30;2.10;;;;;;;23.56;74.64;96800.44;5034842;28;20198;-79
2022/07/06 09:07:32;;;;;;;2.83;2.63;;;;;;;23.56;76.34;96799.63;5035715;28;20301;-80
2022/07/06 09:10:00;;;;;;;2.60;2.40;;;;;;;23.52;77.37;96791.16;5036849;28;20261;-80
2022/07/06 09:12:28;;;;;;;2.50;2.30;;;;;;;23.62;77.25;96803.94;5029728;28;20203;-80
2022/07/06 09:14:55;;;;;;;3.80;2.55;;;;;;;23.61;77.51;96796.78;5037404;28;20206;-80
2022/07/06 09:17:26;;;;;;;3.70;2.50;;;;;;;23.61;76.00;96796.78;5045898;28;20232;-79
2022/07/06 09:19:55;;;;;;;5.20;2.80;;;;;;;23.58;76.40;96802.88;5039327;28;20202;-80
2022/07/06 09:22:27;;;;;;;3.25;2.55;;;;;;;23.89;76.88;96806.75;5035914;28;20207;-79
2022/07/06 09:24:54;;;;;;;3.25;2.72;;;;;;;23.84;75.01;96795.81;5037962;28;20213;-79
2022/07/06 09:27:23;;;;;;;4.30;2.58;;;;;;;23.80;75.18;96797.53;5035967;28;20244;-80
2022/07/06 09:29:50;;;;;;;4.95;2.75;;;;;;;23.82;75.18;96795.28;5041929;28;20228;-79
2022/07/06 09:32:21;;;;;;;3.08;2.53;;;;;;;23.97;75.04;96799.72;5043415;28;20206;-79
2022/07/06 09:34:49;;;;;;;3.63;2.60;;;;;;;23.99;76.82;96795.50;5032629;28;20203;-79
2022/07/06 09:37:17;;;;;;;6.57;2.85;;;;;;;24.23;77.57;96797.31;5045113;28;20214;-79
2022/07/06 09:39:45;;;;;;;3.78;2.95;;;;;;;24.19;74.67;96799.00;5037638;28;20213;-80
2022/07/06 09:42:12;;;;;;;4.53;2.70;;;;;;;24.20;74.81;96795.94;5036115;28;20249;-80
2022/07/06 09:44:41;;;;;;;5.75;2.42;;;;;;;24.21;74.18;96788.50;5037195;28;20221;-80
2022/07/06 09:47:09;;;;;;;4.53;3.17;;;;;;;24.30;74.26;96792.19;5034702;28;20206;-79
2022/07/06 09:49:37;;;;;;;4.78;2.88;;;;;;;24.53;77.94;96788.38;5031529;28;20221;-80
2022/07/06 09:52:06;;;;;;;3.47;2.58;;;;;;;24.63;74.19;96782.63;5034889;28;20207;-80
2022/07/06 09:54:35;;;;;;;3.72;2.50;;;;;;;24.73;73.89;96774.13;5031620;28;20214;-80
2022/07/06 09:57:03;;;;;;;7.00;2.58;;;;;;;24.79;73.47;96775.66;5036081;28;20222;-80
2022/07/06 09:59:31;;;;;;;4.32;2.85;;;;;;;24.80;72.42;96771.75;5035574;28;20215;-80
2022/07/06 10:02:01;;;;;;;3.67;3.00;;;;;;;24.66;72.25;96779.28;5034762;28;20203;-80
2022/07/06 10:04:29;;;;;;;2.80;2.55;;;;;;;24.82;74.99;96769.50;5041811;28;20203;-80
2022/07/06 10:06:58;;;;;;;4.20;2.63;;;;;;;24.81;72.53;96767.88;5044012;28;20193;-80
2022/07/06 10:09:26;;;;;;;3.05;2.67;;;;;;;24.79;72.44;96772.06;5032614;28;20281;-80
2022/07/06 10:11:57;;;;;;;2.72;2.47;;;;;;;24.83;72.55;96765.63;5038483;28;20209;-80
2022/07/06 10:14:27;;;;;;;3.97;2.50;;;;;;;24.78;70.09;96768.50;5039405;28;20305;-80
2022/07/06 10:16:56;;;;;;;5.43;2.80;;;;;;;24.72;71.69;96775.25;5032593;28;20206;-80
2022/07/06 10:19:23;;;;;;;5.60;2.88;;;;;;;24.74;71.96;96763.91;5035825;28;20288;-80
2022/07/06 10:21:52;;;;;;;5.43;3.13;;;;;;;24.87;71.35;96771.31;5036227;28;20213;-80
2022/07/06 10:24:20;;;;;;;3.08;2.78;;;;;;;24.93;70.44;96764.56;5043209;28;20210;-80
2022/07/06 10:26:49;;;;;;;3.67;2.80;;;;;;;25.09;71.27;96767.81;5038332;28;20226;-79
2022/07/06 10:29:18;;;;;;;4.00;2.67;;;;;;;25.11;69.44;96765.53;5031565;28;20231;-79
2022/07/06 10:31:47;;;;;;;6.28;2.78;;;;;;;25.22;69.73;96765.00;5026107;28;20198;-80
2022/07/06 10:34:16;;;;;;;3.08;2.60;;;;;;;25.26;69.41;96754.13;5039165;28;20215;-80
2022/07/06 10:36:45;;;;;;;6.68;2.70;;;;;;;25.47;69.00;96765.47;5031526;28;20200;-80
2022/07/06 10:41:57;;;;;;;3.53;2.80;;;;;;;25.44;66.00;96753.09;5040964;28;20210;-80
2022/07/06 10:44:27;;;;;;;5.20;2.95;;;;;;;25.46;70.20;96748.06;5036649;28;20213;-80
2022/07/06 10:46:55;;;;;;;5.32;3.15;;;;;;;25.46;67.12;96752.78;5030769;28;20253;-81
2022/07/06 10:49:23;;;;;;;3.08;2.60;;;;;;;25.48;68.29;96753.28;5031924;28;20219;-80
2022/07/06 10:51:51;;;;;;;4.88;2.78;;;;;;;25.56;67.69;96747.81;5035665;28;20273;-79
2022/07/06 10:54:20;;;;;;;4.13;2.60;;;;;;;25.60;66.15;96740.53;5033340;28;20203;-81
2022/07/06 10:56:49;;;;;;;2.83;2.63;;;;;;;25.80;66.15;96743.88;5035770;28;20230;-80
2022/07/06 10:59:18;;;;;;;3.13;2.83;;;;;;;25.73;67.06;96749.06;5038288;28;20293;-81
2022/07/06 11:02:17;;;;;;;4.95;3.13;;;;;;;25.70;64.53;96750.50;5028760;28;20211;-81
2022/07/06 11:04:46;;;;;;;2.95;2.63;;;;;;;25.48;64.44;96751.34;5031646;28;20214;-82
2022/07/06 11:07:15;;;;;;;4.45;2.90;;;;;;;25.45;65.62;96748.38;5037824;28;20202;-80
2022/07/06 11:09:47;;;;;;;2.95;2.53;;;;;;;25.53;67.34;96748.44;5037220;28;20237;-80
2022/07/06 11:12:18;;;;;;;2.80;2.60;;;;;;;25.70;66.40;96749.69;5032522;28;20348;-80
2022/07/06 11:14:46;;;;;;;3.13;2.80;;;;;;;25.78;64.36;96740.63;5035469;28;20225;-79
2022/07/06 11:17:13;;;;;;;2.85;2.60;;;;;;;25.95;64.18;96743.47;5032350;28;20199;-78
2022/07/06 11:19:49;;;;;;;2.58;2.38;;;;;;;26.12;64.15;96739.94;5029706;28;20277;-79
2022/07/06 11:22:19;;;;;;;4.18;2.83;;;;;;;26.20;64.69;96742.75;5036924;28;20215;-79
2022/07/06 11:24:47;;;;;;;3.35;2.60;;;;;;;26.04;62.18;96738.78;5031574;28;20206;-80
2022/07/06 11:27:15;;;;;;;2.67;2.47;;;;;;;26.06;63.79;96739.28;5034863;28;20242;-80
2022/07/06 11:29:42;;;;;;;3.55;2.83;;;;;;;26.07;64.11;96735.38;5038105;28;20219;-80
2022/07/06 11:32:10;;;;;;;5.10;2.63;;;;;;;26.12;63.57;96731.63;5032226;28;20285;-81
2022/07/06 11:34:40;;;;;;;3.03;2.60;;;;;;;26.25;62.89;96734.31;5037052;28;20246;-80
2022/07/06 11:37:11;;;;;;;6.90;2.50;;;;;;;26.22;62.32;96743.25;5036083;28;20203;-81